createdAt,value
2019-05-05T00:00:21.294Z,1.60
2019-05-05T00:01:21.243Z,1.63
2019-05-05T00:02:21.204Z,1.66
2019-05-05T00:03:21.195Z,1.77
2019-05-05T00:04:21.105Z,1.70
2019-05-05T00:05:21.065Z,1.70
2019-05-05T00:06:21.023Z,1.77
2019-05-05T00:07:21.015Z,1.79
2019-05-05T00:08:20.951Z,1.77
2019-05-05T00:09:20.908Z,1.80
2019-05-05T00:10:20.852Z,1.77
2019-05-05T00:11:20.826Z,1.77
2019-05-05T00:12:20.758Z,1.80
2019-05-05T00:13:20.739Z,1.80
2019-05-05T00:14:20.685Z,1.83
2019-05-05T00:15:20.657Z,1.81
2019-05-05T00:16:20.628Z,1.80
2019-05-05T00:17:20.563Z,1.83
2019-05-05T00:18:20.516Z,1.77
2019-05-05T00:19:30.688Z,1.80
2019-05-05T00:20:20.438Z,1.87
2019-05-05T00:21:20.409Z,1.87
2019-05-05T00:22:20.349Z,1.87
2019-05-05T00:23:20.297Z,1.81
2019-05-05T00:24:20.262Z,1.87
2019-05-05T00:25:20.224Z,1.87
2019-05-05T00:26:20.183Z,1.86
2019-05-05T00:27:20.132Z,1.84
2019-05-05T00:28:20.147Z,1.83
2019-05-05T00:29:20.050Z,1.76
2019-05-05T00:30:20.013Z,1.81
2019-05-05T00:31:19.986Z,1.76
2019-05-05T00:32:19.940Z,1.66
2019-05-05T00:33:19.875Z,1.73
2019-05-05T00:34:19.862Z,1.73
2019-05-05T00:35:19.815Z,1.68
2019-05-05T00:36:19.761Z,1.73
2019-05-05T00:37:19.727Z,1.72
2019-05-05T00:38:19.709Z,1.69
2019-05-05T00:39:19.652Z,1.69
2019-05-05T00:40:19.603Z,1.72
2019-05-05T00:41:19.547Z,1.79
2019-05-05T00:42:19.500Z,1.80
2019-05-05T00:43:19.466Z,1.87
2019-05-05T00:44:19.434Z,1.81
2019-05-05T00:45:19.377Z,1.81
2019-05-05T00:46:19.356Z,1.87
2019-05-05T00:47:19.298Z,1.87
2019-05-05T00:48:19.256Z,1.86
2019-05-05T00:49:19.210Z,1.98
2019-05-05T00:50:19.168Z,1.99
2019-05-05T00:51:19.133Z,1.99
2019-05-05T00:52:19.093Z,1.95
2019-05-05T00:53:19.037Z,1.98
2019-05-05T00:54:18.999Z,1.95
2019-05-05T00:55:18.968Z,2.00
2019-05-05T00:56:18.911Z,1.99
2019-05-05T00:57:18.890Z,1.99
2019-05-05T00:58:18.845Z,1.99
2019-05-05T00:59:18.789Z,1.90
2019-05-05T01:00:18.762Z,1.95
2019-05-05T01:01:18.708Z,2.02
2019-05-05T01:02:18.691Z,1.95
2019-05-05T01:03:18.615Z,2.05
2019-05-05T01:04:18.584Z,2.07
2019-05-05T01:05:18.539Z,2.09
2019-05-05T01:06:18.492Z,2.03
2019-05-05T01:07:18.469Z,2.03
2019-05-05T01:08:18.409Z,2.06
2019-05-05T01:09:18.375Z,2.07
2019-05-05T01:10:18.337Z,2.07
2019-05-05T01:11:18.294Z,2.09
2019-05-05T01:12:18.241Z,2.18
2019-05-05T01:13:18.215Z,2.14
2019-05-05T01:14:18.166Z,2.09
2019-05-05T01:15:18.111Z,2.14
2019-05-05T01:16:18.076Z,2.07
2019-05-05T01:17:18.037Z,2.10
2019-05-05T01:18:17.985Z,2.09
2019-05-05T01:19:17.955Z,2.16
2019-05-05T01:20:17.914Z,2.14
2019-05-05T01:21:17.863Z,2.14
2019-05-05T01:22:17.839Z,2.18
2019-05-05T01:23:17.778Z,2.21
2019-05-05T01:24:17.771Z,2.14
2019-05-05T01:25:17.699Z,2.23
2019-05-05T01:26:17.667Z,2.27
2019-05-05T01:27:17.608Z,2.23
2019-05-05T01:28:17.578Z,2.24
2019-05-05T01:29:17.535Z,2.20
2019-05-05T01:30:17.505Z,2.21
2019-05-05T01:31:17.451Z,2.28
2019-05-05T01:32:17.433Z,2.23
2019-05-05T01:33:17.364Z,2.23
2019-05-05T01:34:17.311Z,2.25
2019-05-05T01:35:17.274Z,2.21
2019-05-05T01:36:17.271Z,2.28
2019-05-05T01:37:17.203Z,2.21
2019-05-05T01:38:17.151Z,2.36
2019-05-05T01:39:17.136Z,2.24
2019-05-05T01:40:17.084Z,2.27
2019-05-05T01:41:17.035Z,2.30
2019-05-05T01:42:16.983Z,2.28
2019-05-05T01:43:16.941Z,2.27
2019-05-05T01:44:16.903Z,2.34
2019-05-05T01:45:16.868Z,2.25
2019-05-05T01:46:16.819Z,2.20
2019-05-05T01:47:16.781Z,2.24
2019-05-05T01:48:16.734Z,2.27
2019-05-05T01:49:16.698Z,2.23
2019-05-05T01:50:20.870Z,2.27
2019-05-05T01:51:16.611Z,2.36
2019-05-05T01:52:16.555Z,2.34
2019-05-05T01:53:16.518Z,2.31
2019-05-05T01:54:16.473Z,2.30
2019-05-05T01:55:16.435Z,2.25
2019-05-05T01:56:16.399Z,2.27
2019-05-05T01:57:16.381Z,2.24
2019-05-05T01:58:16.324Z,2.24
2019-05-05T01:59:16.302Z,2.25
2019-05-05T02:00:16.253Z,2.18
2019-05-05T02:01:16.206Z,2.30
2019-05-05T02:02:16.174Z,2.28
2019-05-05T02:03:16.120Z,2.21
2019-05-05T02:04:16.088Z,2.30
2019-05-05T02:05:16.039Z,2.28
2019-05-05T02:06:15.980Z,2.25
2019-05-05T02:07:15.937Z,2.18
2019-05-05T02:08:15.894Z,2.25
2019-05-05T02:09:16.045Z,2.30
2019-05-05T02:10:15.836Z,2.25
2019-05-05T02:11:15.789Z,2.20
2019-05-05T02:12:16.041Z,2.23
2019-05-05T02:13:16.127Z,2.23
2019-05-05T02:14:15.723Z,2.17
2019-05-05T02:15:15.619Z,2.28
2019-05-05T02:16:15.560Z,2.30
2019-05-05T02:17:15.520Z,2.23
2019-05-05T02:18:15.478Z,2.23
2019-05-05T02:19:15.445Z,2.25
2019-05-05T02:20:27.987Z,2.25
2019-05-05T02:21:15.360Z,2.25
2019-05-05T02:22:15.310Z,2.24
2019-05-05T02:23:15.267Z,2.25
2019-05-05T02:24:15.232Z,2.25
2019-05-05T02:25:15.190Z,2.28
2019-05-05T02:26:15.414Z,2.31
2019-05-05T02:27:15.114Z,2.30
2019-05-05T02:28:15.160Z,2.34
2019-05-05T02:29:15.013Z,2.24
2019-05-05T02:30:16.282Z,2.34
2019-05-05T02:31:16.631Z,2.31
2019-05-05T02:32:15.737Z,2.23
2019-05-05T02:33:15.735Z,2.21
2019-05-05T02:34:16.443Z,2.17
2019-05-05T02:35:16.278Z,2.24
2019-05-05T02:36:15.959Z,2.30
2019-05-05T02:37:16.055Z,2.20
2019-05-05T02:38:15.645Z,2.21
2019-05-05T02:39:16.016Z,2.20
2019-05-05T02:40:15.907Z,2.09
2019-05-05T02:41:15.477Z,2.14
2019-05-05T02:42:14.813Z,2.12
2019-05-05T02:43:15.278Z,2.25
2019-05-05T02:44:15.522Z,2.14
2019-05-05T02:45:15.575Z,2.18
2019-05-05T02:46:14.612Z,2.28
2019-05-05T02:47:15.542Z,2.27
2019-05-05T02:48:15.291Z,2.24
2019-05-05T02:49:15.113Z,2.25
2019-05-05T02:50:15.550Z,2.17
2019-05-05T02:51:15.092Z,2.23
2019-05-05T02:52:15.091Z,2.27
2019-05-05T02:53:14.328Z,2.30
2019-05-05T02:54:13.973Z,2.31
2019-05-05T02:55:14.697Z,2.28
2019-05-05T02:56:14.628Z,2.30
2019-05-05T02:57:13.867Z,2.28
2019-05-05T02:58:14.059Z,2.30
2019-05-05T02:59:14.687Z,2.30
2019-05-05T03:00:13.734Z,2.30
2019-05-05T03:01:14.049Z,2.28
2019-05-05T03:02:14.487Z,2.35
2019-05-05T03:03:13.605Z,2.28
2019-05-05T03:04:14.104Z,2.25
2019-05-05T03:05:14.291Z,2.25
2019-05-05T03:06:14.468Z,2.28
2019-05-05T03:07:13.836Z,2.35
2019-05-05T03:08:13.863Z,2.23
2019-05-05T03:09:13.799Z,2.24
2019-05-05T03:10:14.097Z,2.27
2019-05-05T03:11:14.457Z,2.25
2019-05-05T03:12:14.918Z,2.27
2019-05-05T03:13:13.956Z,2.35
2019-05-05T03:14:14.319Z,2.34
2019-05-05T03:15:14.283Z,2.23
2019-05-05T03:16:14.217Z,2.35
2019-05-05T03:17:14.323Z,2.34
2019-05-05T03:18:13.439Z,2.30
2019-05-05T03:19:14.234Z,2.35
2019-05-05T03:20:14.521Z,2.31
2019-05-05T03:21:14.010Z,2.35
2019-05-05T03:22:14.286Z,2.31
2019-05-05T03:23:13.660Z,2.28
2019-05-05T03:24:14.313Z,2.41
2019-05-05T03:25:13.632Z,2.27
2019-05-05T03:26:14.075Z,2.28
2019-05-05T03:27:14.321Z,2.30
2019-05-05T03:28:13.620Z,2.34
2019-05-05T03:29:13.849Z,2.36
2019-05-05T03:30:15.234Z,2.43
2019-05-05T03:31:15.540Z,2.31
2019-05-05T03:32:15.930Z,2.30
2019-05-05T03:33:15.679Z,2.31
2019-05-05T03:34:16.037Z,2.39
2019-05-05T03:35:13.558Z,2.36
2019-05-05T03:36:13.997Z,2.34
2019-05-05T03:37:12.186Z,2.41
2019-05-05T03:38:14.128Z,2.39
2019-05-05T03:39:12.106Z,2.43
2019-05-05T03:40:12.099Z,2.38
2019-05-05T03:41:13.586Z,2.48
2019-05-05T03:42:13.813Z,2.41
2019-05-05T03:43:11.940Z,2.48
2019-05-05T03:44:13.983Z,2.45
2019-05-05T03:45:11.859Z,2.52
2019-05-05T03:46:13.537Z,2.53
2019-05-05T03:47:13.485Z,2.52
2019-05-05T03:48:13.598Z,2.46
2019-05-05T03:49:13.757Z,2.45
2019-05-05T03:50:11.637Z,2.52
2019-05-05T03:51:18.775Z,2.49
2019-05-05T03:52:11.560Z,2.41
2019-05-05T03:53:11.514Z,2.46
2019-05-05T03:54:11.470Z,2.53
2019-05-05T03:55:13.647Z,2.46
2019-05-05T03:56:11.391Z,2.46
2019-05-05T03:57:11.374Z,2.46
2019-05-05T03:58:11.328Z,2.45
2019-05-05T03:59:11.272Z,2.46
2019-05-05T04:00:11.241Z,2.49
2019-05-05T04:01:11.220Z,2.57
2019-05-05T04:02:11.173Z,2.60
2019-05-05T04:03:11.130Z,2.59
2019-05-05T04:04:11.080Z,2.64
2019-05-05T04:05:11.034Z,2.64
2019-05-05T04:06:10.977Z,2.57
2019-05-05T04:07:10.945Z,2.53
2019-05-05T04:08:10.910Z,2.61
2019-05-05T04:09:10.889Z,2.64
2019-05-05T04:10:10.845Z,2.60
2019-05-05T04:11:10.795Z,2.57
2019-05-05T04:12:10.789Z,2.52
2019-05-05T04:13:10.680Z,2.59
2019-05-05T04:14:10.648Z,2.56
2019-05-05T04:15:10.598Z,2.54
2019-05-05T04:16:10.558Z,2.49
2019-05-05T04:17:10.535Z,2.54
2019-05-05T04:18:10.474Z,2.48
2019-05-05T04:19:10.429Z,2.34
2019-05-05T04:20:10.396Z,2.39
2019-05-05T04:21:10.347Z,2.45
2019-05-05T04:22:10.320Z,2.27
2019-05-05T04:23:10.266Z,2.34
2019-05-05T04:24:10.229Z,2.39
2019-05-05T04:25:10.179Z,2.35
2019-05-05T04:26:10.141Z,2.31
2019-05-05T04:27:10.112Z,2.36
2019-05-05T04:28:10.084Z,2.36
2019-05-05T04:29:10.046Z,2.41
2019-05-05T04:30:10.005Z,2.31
2019-05-05T04:31:10.004Z,2.42
2019-05-05T04:32:09.905Z,2.42
2019-05-05T04:33:09.887Z,2.30
2019-05-05T04:34:09.810Z,2.34
2019-05-05T04:35:09.834Z,2.27
2019-05-05T04:36:09.748Z,2.38
2019-05-05T04:37:09.705Z,2.34
2019-05-05T04:38:09.666Z,2.31
2019-05-05T04:39:09.644Z,2.35
2019-05-05T04:40:09.567Z,2.35
2019-05-05T04:41:09.554Z,2.41
2019-05-05T04:42:09.508Z,2.39
2019-05-05T04:43:09.489Z,2.38
2019-05-05T04:44:09.412Z,2.39
2019-05-05T04:45:09.351Z,2.41
2019-05-05T04:46:09.316Z,2.36
2019-05-05T04:47:09.271Z,2.28
2019-05-05T04:48:09.238Z,2.28
2019-05-05T04:49:09.184Z,2.35
2019-05-05T04:50:09.150Z,2.31
2019-05-05T04:51:09.108Z,2.34
2019-05-05T04:52:09.065Z,2.28
2019-05-05T04:53:09.022Z,2.36
2019-05-05T04:54:08.985Z,2.38
2019-05-05T04:55:08.946Z,2.42
2019-05-05T04:56:08.897Z,2.30
2019-05-05T04:57:08.901Z,2.24
2019-05-05T04:58:08.814Z,2.27
2019-05-05T04:59:08.803Z,2.24
2019-05-05T05:00:08.758Z,2.34
2019-05-05T05:01:08.729Z,2.25
2019-05-05T05:02:08.649Z,2.36
2019-05-05T05:03:08.643Z,2.35
2019-05-05T05:04:08.621Z,2.30
2019-05-05T05:05:08.538Z,2.38
2019-05-05T05:06:08.499Z,2.30
2019-05-05T05:07:08.460Z,2.42
2019-05-05T05:08:08.408Z,2.42
2019-05-05T05:09:08.415Z,2.39
2019-05-05T05:10:08.358Z,2.35
2019-05-05T05:11:08.299Z,2.41
2019-05-05T05:12:08.261Z,2.41
2019-05-05T05:13:08.199Z,2.46
2019-05-05T05:14:08.146Z,2.54
2019-05-05T05:15:08.109Z,2.46
2019-05-05T05:16:08.059Z,2.60
2019-05-05T05:17:08.018Z,2.54
2019-05-05T05:18:07.980Z,2.61
2019-05-05T05:19:07.937Z,2.59
2019-05-05T05:20:07.898Z,2.64
2019-05-05T05:21:07.863Z,2.72
2019-05-05T05:22:07.813Z,2.71
2019-05-05T05:23:07.778Z,2.72
2019-05-05T05:24:07.733Z,2.75
2019-05-05T05:25:07.690Z,2.72
2019-05-05T05:26:07.655Z,2.63
2019-05-05T05:27:07.614Z,2.61
2019-05-05T05:28:07.576Z,2.69
2019-05-05T05:29:07.551Z,2.63
2019-05-05T05:30:07.522Z,2.61
2019-05-05T05:31:07.452Z,2.69
2019-05-05T05:32:07.395Z,2.75
2019-05-05T05:33:07.363Z,2.77
2019-05-05T05:34:07.317Z,2.90
2019-05-05T05:35:07.323Z,3.05
2019-05-05T05:36:07.273Z,3.11
2019-05-05T05:37:07.241Z,3.26
2019-05-05T05:38:07.150Z,3.28
2019-05-05T05:39:07.126Z,3.31
2019-05-05T05:40:07.090Z,3.24
2019-05-05T05:41:07.035Z,3.17
2019-05-05T05:42:06.986Z,3.02
2019-05-05T05:43:06.954Z,3.02
2019-05-05T05:44:06.909Z,2.95
2019-05-05T05:45:06.858Z,2.97
2019-05-05T05:46:06.837Z,3.03
2019-05-05T05:47:06.810Z,2.96
2019-05-05T05:48:06.737Z,3.05
2019-05-05T05:49:06.712Z,3.06
2019-05-05T05:50:06.705Z,3.02
2019-05-05T05:51:06.630Z,3.13
2019-05-05T05:52:15.757Z,3.20
2019-05-05T05:53:06.531Z,3.26
2019-05-05T05:54:06.536Z,3.26
2019-05-05T05:55:06.491Z,3.48
2019-05-05T05:56:06.427Z,3.54
2019-05-05T05:57:06.404Z,3.76
2019-05-05T05:58:06.348Z,3.97
2019-05-05T05:59:06.327Z,3.96
2019-05-05T06:00:06.298Z,4.14
2019-05-05T06:01:06.232Z,4.33
2019-05-05T06:02:12.232Z,4.33
2019-05-05T06:03:06.161Z,4.44
2019-05-05T06:04:06.098Z,4.47
2019-05-05T06:05:06.047Z,4.63
2019-05-05T06:06:06.019Z,4.77
2019-05-05T06:07:05.964Z,4.73
2019-05-05T06:08:05.941Z,4.75
2019-05-05T06:09:05.898Z,4.86
2019-05-05T06:10:05.841Z,5.09
2019-05-05T06:11:05.829Z,5.24
2019-05-05T06:12:05.800Z,5.17
2019-05-05T06:13:05.785Z,5.22
2019-05-05T06:14:05.745Z,5.15
2019-05-05T06:15:05.643Z,4.92
2019-05-05T06:16:05.690Z,4.99
2019-05-05T06:17:05.589Z,5.04
2019-05-05T06:18:05.540Z,4.99
2019-05-05T06:19:05.526Z,4.92
2019-05-05T06:20:05.503Z,4.96
2019-05-05T06:21:05.418Z,5.06
2019-05-05T06:22:05.393Z,5.18
2019-05-05T06:23:05.351Z,5.25
2019-05-05T06:24:05.301Z,5.21
2019-05-05T06:25:06.611Z,5.25
2019-05-05T06:26:06.865Z,5.15
2019-05-05T06:27:05.185Z,5.02
2019-05-05T06:28:05.134Z,5.17
2019-05-05T06:29:05.104Z,5.09
2019-05-05T06:30:05.079Z,5.30
2019-05-05T06:31:05.096Z,5.46
2019-05-05T06:32:04.991Z,5.81
2019-05-05T06:33:05.042Z,5.82
2019-05-05T06:34:04.902Z,5.89
2019-05-05T06:35:04.864Z,6.04
2019-05-05T06:36:04.828Z,6.27
2019-05-05T06:37:04.801Z,6.21
2019-05-05T06:38:04.876Z,6.08
2019-05-05T06:39:04.703Z,6.14
2019-05-05T06:40:04.662Z,6.33
2019-05-05T06:41:04.634Z,6.56
2019-05-05T06:42:04.617Z,6.58
2019-05-05T06:43:04.554Z,6.46
2019-05-05T06:44:04.534Z,6.25
2019-05-05T06:45:04.493Z,6.25
2019-05-05T06:46:04.445Z,6.25
2019-05-05T06:47:04.905Z,6.21
2019-05-05T06:48:04.441Z,6.28
2019-05-05T06:49:04.459Z,6.15
2019-05-05T06:50:04.283Z,6.22
2019-05-05T06:51:04.276Z,6.48
2019-05-05T06:52:04.353Z,6.69
2019-05-05T06:53:04.395Z,6.71
2019-05-05T06:54:04.719Z,6.52
2019-05-05T06:55:04.107Z,6.64
2019-05-05T06:56:04.230Z,6.54
2019-05-05T06:57:04.600Z,6.76
2019-05-05T06:58:04.638Z,6.91
2019-05-05T06:59:04.407Z,7.07
2019-05-05T07:00:03.930Z,7.23
2019-05-05T07:01:03.882Z,7.28
2019-05-05T07:02:04.351Z,7.28
2019-05-05T07:03:07.382Z,7.21
2019-05-05T07:04:03.763Z,7.31
2019-05-05T07:05:04.181Z,7.43
2019-05-05T07:06:04.471Z,7.35
2019-05-05T07:07:05.156Z,7.20
2019-05-05T07:08:04.431Z,7.17
2019-05-05T07:09:05.346Z,7.06
2019-05-05T07:10:03.800Z,7.55
2019-05-05T07:11:04.051Z,8.41
2019-05-05T07:12:04.475Z,8.86
2019-05-05T07:13:04.943Z,9.65
2019-05-05T07:14:03.797Z,9.13
2019-05-05T07:15:04.252Z,8.52
2019-05-05T07:16:04.894Z,8.58
2019-05-05T07:17:05.090Z,9.01
2019-05-05T07:18:03.773Z,9.78
2019-05-05T07:19:04.343Z,10.42
2019-05-05T07:20:04.389Z,10.99
2019-05-05T07:21:03.795Z,11.11
2019-05-05T07:22:04.063Z,11.62
2019-05-05T07:23:05.401Z,12.19
2019-05-05T07:24:03.944Z,12.10
2019-05-05T07:25:04.727Z,11.42
2019-05-05T07:26:04.201Z,11.99
2019-05-05T07:27:04.822Z,12.07
2019-05-05T07:28:04.284Z,12.20
2019-05-05T07:29:04.589Z,12.64
2019-05-05T07:30:04.772Z,12.17
2019-05-05T07:31:04.420Z,12.53
2019-05-05T07:32:03.933Z,12.75
2019-05-05T07:33:04.574Z,13.04
2019-05-05T07:34:04.589Z,13.05
2019-05-05T07:35:04.069Z,13.05
2019-05-05T07:36:05.852Z,11.73
2019-05-05T07:37:03.854Z,11.91
2019-05-05T07:38:04.510Z,11.82
2019-05-05T07:39:03.838Z,11.64
2019-05-05T07:40:04.252Z,11.51
2019-05-05T07:41:03.648Z,11.52
2019-05-05T07:42:04.432Z,11.32
2019-05-05T07:43:04.369Z,11.85
2019-05-05T07:44:04.627Z,11.17
2019-05-05T07:45:05.481Z,10.96
2019-05-05T07:46:03.918Z,11.94
2019-05-05T07:47:03.623Z,12.01
2019-05-05T07:48:08.500Z,11.94
2019-05-05T07:49:03.897Z,12.85
2019-05-05T07:50:04.147Z,12.49
2019-05-05T07:51:05.120Z,11.85
2019-05-05T07:52:04.041Z,12.05
2019-05-05T07:53:12.216Z,11.73
2019-05-05T07:54:03.837Z,13.41
2019-05-05T07:55:03.632Z,14.25
2019-05-05T07:56:03.937Z,14.95
2019-05-05T07:57:04.075Z,15.01
2019-05-05T07:58:04.180Z,14.04
2019-05-05T07:59:03.781Z,13.22
2019-05-05T08:00:01.965Z,11.62
2019-05-05T08:01:01.944Z,10.70
2019-05-05T08:02:03.883Z,10.02
2019-05-05T08:03:03.737Z,9.75
2019-05-05T08:04:01.813Z,8.98
2019-05-05T08:05:01.813Z,8.45
2019-05-05T08:06:03.816Z,8.02
2019-05-05T08:07:03.946Z,8.02
2019-05-05T08:08:01.704Z,8.00
2019-05-05T08:09:03.941Z,8.08
2019-05-05T08:10:01.633Z,8.07
2019-05-05T08:11:01.634Z,8.05
2019-05-05T08:12:01.584Z,7.87
2019-05-05T08:13:01.555Z,7.87
2019-05-05T08:14:03.857Z,7.90
2019-05-05T08:15:01.492Z,7.97
2019-05-05T08:16:03.687Z,7.95
2019-05-05T08:17:01.457Z,8.04
2019-05-05T08:18:01.396Z,8.02
2019-05-05T08:19:01.366Z,8.15
2019-05-05T08:20:03.845Z,8.11
2019-05-05T08:21:01.324Z,8.76
2019-05-05T08:22:01.636Z,10.23
2019-05-05T08:23:01.224Z,11.80
2019-05-05T08:24:01.224Z,13.05
2019-05-05T08:25:01.163Z,13.29
2019-05-05T08:26:01.118Z,13.64
2019-05-05T08:27:01.148Z,13.85
2019-05-05T08:28:01.074Z,13.89
2019-05-05T08:29:01.027Z,14.09
2019-05-05T08:30:03.109Z,14.18
2019-05-05T08:31:00.976Z,14.40
2019-05-05T08:32:00.962Z,13.25
2019-05-05T08:33:00.913Z,11.94
2019-05-05T08:34:00.899Z,10.38
2019-05-05T08:35:01.167Z,9.68
2019-05-05T08:36:00.824Z,9.58
2019-05-05T08:37:00.760Z,10.88
2019-05-05T08:38:00.729Z,10.94
2019-05-05T08:39:00.710Z,11.18
2019-05-05T08:40:00.728Z,12.79
2019-05-05T08:41:00.649Z,13.08
2019-05-05T08:42:00.657Z,13.62
2019-05-05T08:43:00.584Z,13.52
2019-05-05T08:44:00.553Z,13.70
2019-05-05T08:45:00.530Z,14.69
2019-05-05T08:46:00.531Z,15.39
2019-05-05T08:47:00.460Z,15.68
2019-05-05T08:48:00.431Z,15.65
2019-05-05T08:49:00.402Z,15.89
2019-05-05T08:50:00.394Z,15.74
2019-05-05T08:51:00.367Z,15.38
2019-05-05T08:52:00.313Z,13.97
2019-05-05T08:53:00.338Z,13.63
2019-05-05T08:54:00.296Z,13.11
2019-05-05T08:55:00.230Z,12.38
2019-05-05T08:56:00.211Z,11.82
2019-05-05T08:57:00.189Z,11.06
2019-05-05T08:58:00.175Z,10.51
2019-05-05T08:59:00.119Z,9.84
2019-05-05T09:00:00.086Z,9.83
2019-05-05T09:01:00.124Z,9.64
2019-05-05T09:02:00.039Z,10.27
2019-05-05T09:03:00.005Z,11.18
2019-05-05T09:03:59.967Z,10.67
2019-05-05T09:04:59.959Z,10.27
2019-05-05T09:05:59.922Z,10.09
2019-05-05T09:06:59.903Z,9.71
2019-05-05T09:07:59.863Z,9.72
2019-05-05T09:08:59.883Z,9.51
2019-05-05T09:09:59.803Z,9.39
2019-05-05T09:10:59.785Z,9.24
2019-05-05T09:11:59.755Z,9.11
2019-05-05T09:12:59.704Z,9.13
2019-05-05T09:13:59.702Z,9.24
2019-05-05T09:14:59.648Z,9.32
2019-05-05T09:15:59.609Z,9.43
2019-05-05T09:16:59.585Z,9.40
2019-05-05T09:17:59.612Z,9.36
2019-05-05T09:18:59.515Z,9.39
2019-05-05T09:19:59.489Z,9.33
2019-05-05T09:20:59.449Z,9.40
2019-05-05T09:21:59.457Z,9.57
2019-05-05T09:22:59.401Z,9.57
2019-05-05T09:24:02.527Z,9.61
2019-05-05T09:24:59.325Z,9.50
2019-05-05T09:25:59.289Z,9.14
2019-05-05T09:26:59.258Z,9.26
2019-05-05T09:27:59.212Z,9.18
2019-05-05T09:28:59.211Z,9.21
2019-05-05T09:29:59.172Z,9.35
2019-05-05T09:30:59.145Z,9.53
2019-05-05T09:31:59.128Z,9.32
2019-05-05T09:32:59.056Z,9.50
2019-05-05T09:33:59.025Z,9.53
2019-05-05T09:34:59.027Z,9.64
2019-05-05T09:35:58.970Z,9.54
2019-05-05T09:36:58.949Z,9.60
2019-05-05T09:37:58.895Z,9.71
2019-05-05T09:38:58.856Z,9.68
2019-05-05T09:39:58.846Z,9.93
2019-05-05T09:40:58.794Z,9.91
2019-05-05T09:41:58.755Z,9.96
2019-05-05T09:42:58.739Z,10.01
2019-05-05T09:43:58.690Z,10.07
2019-05-05T09:44:58.664Z,10.32
2019-05-05T09:45:58.609Z,10.59
2019-05-05T09:46:58.588Z,10.73
2019-05-05T09:47:58.541Z,10.99
2019-05-05T09:48:58.519Z,11.32
2019-05-05T09:50:00.259Z,11.44
2019-05-05T09:50:58.451Z,11.43
2019-05-05T09:51:58.402Z,11.44
2019-05-05T09:52:58.369Z,11.42
2019-05-05T09:54:11.168Z,11.69
2019-05-05T09:54:58.326Z,12.09
2019-05-05T09:55:58.276Z,12.21
2019-05-05T09:56:58.225Z,12.05
2019-05-05T09:57:58.230Z,11.73
2019-05-05T09:58:58.177Z,11.46
2019-05-05T09:59:58.149Z,11.60
2019-05-05T10:00:58.111Z,11.69
2019-05-05T10:01:58.075Z,11.58
2019-05-05T10:02:58.019Z,11.51
2019-05-05T10:03:57.999Z,11.47
2019-05-05T10:04:57.963Z,11.19
2019-05-05T10:05:57.943Z,11.39
2019-05-05T10:06:57.881Z,11.57
2019-05-05T10:07:57.854Z,11.64
2019-05-05T10:08:57.824Z,12.20
2019-05-05T10:09:57.794Z,12.21
2019-05-05T10:10:57.771Z,11.85
2019-05-05T10:11:57.712Z,11.44
2019-05-05T10:12:57.699Z,11.39
2019-05-05T10:13:57.648Z,11.32
2019-05-05T10:14:57.628Z,11.14
2019-05-05T10:15:57.570Z,10.97
2019-05-05T10:16:57.546Z,10.96
2019-05-05T10:17:57.532Z,10.85
2019-05-05T10:18:57.518Z,10.59
2019-05-05T10:19:57.455Z,10.60
2019-05-05T10:20:57.417Z,10.70
2019-05-05T10:21:57.393Z,11.22
2019-05-05T10:22:57.359Z,11.32
2019-05-05T10:23:57.312Z,11.40
2019-05-05T10:24:57.701Z,11.25
2019-05-05T10:25:57.255Z,11.21
2019-05-05T10:26:58.673Z,11.24
2019-05-05T10:27:57.196Z,11.47
2019-05-05T10:28:57.173Z,12.01
2019-05-05T10:29:57.135Z,11.90
2019-05-05T10:30:57.090Z,12.64
2019-05-05T10:31:57.055Z,13.08
2019-05-05T10:32:57.021Z,13.07
2019-05-05T10:33:56.973Z,12.92
2019-05-05T10:34:56.956Z,12.93
2019-05-05T10:35:56.923Z,13.20
2019-05-05T10:36:56.905Z,14.06
2019-05-05T10:37:56.878Z,14.47
2019-05-05T10:38:56.834Z,15.13
2019-05-05T10:39:56.827Z,15.72
2019-05-05T10:40:56.799Z,15.16
2019-05-05T10:41:56.726Z,14.51
2019-05-05T10:42:56.743Z,13.46
2019-05-05T10:43:56.675Z,11.90
2019-05-05T10:44:56.633Z,11.94
2019-05-05T10:45:56.622Z,11.47
2019-05-05T10:46:56.574Z,11.22
2019-05-05T10:47:56.579Z,10.73
2019-05-05T10:48:59.583Z,10.88
2019-05-05T10:49:56.507Z,10.64
2019-05-05T10:50:56.474Z,10.79
2019-05-05T10:51:56.448Z,10.56
2019-05-05T10:52:56.417Z,10.34
2019-05-05T10:53:56.455Z,10.17
2019-05-05T10:54:56.380Z,10.11
2019-05-05T10:55:56.305Z,10.18
2019-05-05T10:56:56.266Z,10.17
2019-05-05T10:57:56.343Z,10.25
2019-05-05T10:58:56.264Z,10.48
2019-05-05T11:00:09.049Z,10.56
2019-05-05T11:00:56.270Z,10.74
2019-05-05T11:01:56.113Z,10.82
2019-05-05T11:02:59.207Z,11.02
2019-05-05T11:03:56.129Z,10.86
2019-05-05T11:04:55.992Z,10.64
2019-05-05T11:05:56.057Z,10.71
2019-05-05T11:06:55.953Z,10.82
2019-05-05T11:07:55.929Z,10.96
2019-05-05T11:08:55.967Z,11.24
2019-05-05T11:09:55.924Z,11.33
2019-05-05T11:10:55.806Z,11.27
2019-05-05T11:11:55.779Z,11.15
2019-05-05T11:12:55.733Z,11.22
2019-05-05T11:13:55.780Z,11.07
2019-05-05T11:14:55.702Z,11.03
2019-05-05T11:15:55.676Z,11.03
2019-05-05T11:16:55.585Z,11.09
2019-05-05T11:17:55.620Z,10.68
2019-05-05T11:18:55.542Z,10.86
2019-05-05T11:19:55.487Z,11.11
2019-05-05T11:20:55.463Z,11.19
2019-05-05T11:21:55.445Z,11.43
2019-05-05T11:22:55.386Z,11.58
2019-05-05T11:23:55.364Z,12.01
2019-05-05T11:25:00.772Z,12.01
2019-05-05T11:25:55.287Z,12.34
2019-05-05T11:26:55.284Z,12.46
2019-05-05T11:27:55.279Z,12.52
2019-05-05T11:28:55.208Z,12.17
2019-05-05T11:29:55.165Z,12.04
2019-05-05T11:30:55.129Z,11.65
2019-05-05T11:31:55.154Z,11.43
2019-05-05T11:32:55.086Z,11.43
2019-05-05T11:33:55.032Z,11.51
2019-05-05T11:34:55.129Z,11.96
2019-05-05T11:35:55.023Z,12.05
2019-05-05T11:36:54.930Z,11.91
2019-05-05T11:37:54.951Z,12.07
2019-05-05T11:38:54.861Z,11.88
2019-05-05T11:39:54.832Z,11.83
2019-05-05T11:40:54.874Z,11.64
2019-05-05T11:41:54.922Z,11.72
2019-05-05T11:42:54.733Z,11.91
2019-05-05T11:43:54.778Z,11.73
2019-05-05T11:44:54.703Z,11.75
2019-05-05T11:45:54.667Z,11.88
2019-05-05T11:46:54.841Z,11.91
2019-05-05T11:47:54.585Z,11.91
2019-05-05T11:48:54.581Z,11.99
2019-05-05T11:49:56.627Z,12.14
2019-05-05T11:50:54.449Z,12.27
2019-05-05T11:51:54.443Z,12.09
2019-05-05T11:52:54.540Z,11.90
2019-05-05T11:53:54.382Z,12.24
2019-05-05T11:54:58.337Z,13.15
2019-05-05T11:55:55.106Z,14.03
2019-05-05T11:56:54.363Z,14.03
2019-05-05T11:57:57.357Z,14.14
2019-05-05T11:58:54.722Z,13.73
2019-05-05T11:59:54.157Z,13.59
2019-05-05T12:00:54.587Z,13.26
2019-05-05T12:01:54.994Z,13.07
2019-05-05T12:02:54.395Z,13.10
2019-05-05T12:03:54.020Z,13.14
2019-05-05T12:04:54.143Z,12.64
2019-05-05T12:05:53.978Z,12.24
2019-05-05T12:06:53.926Z,11.95
2019-05-05T12:07:54.153Z,11.88
2019-05-05T12:08:53.879Z,11.60
2019-05-05T12:09:54.905Z,11.14
2019-05-05T12:10:54.274Z,10.79
2019-05-05T12:11:54.501Z,10.56
2019-05-05T12:12:53.781Z,10.30
2019-05-05T12:13:54.649Z,10.44
2019-05-05T12:14:53.992Z,10.36
2019-05-05T12:15:53.859Z,10.12
2019-05-05T12:16:53.617Z,10.05
2019-05-05T12:17:54.532Z,9.97
2019-05-05T12:18:53.986Z,9.89
2019-05-05T12:19:54.075Z,9.81
2019-05-05T12:20:54.410Z,9.90
2019-05-05T12:21:54.853Z,9.94
2019-05-05T12:22:53.911Z,10.01
2019-05-05T12:23:54.654Z,10.22
2019-05-05T12:24:53.579Z,10.45
2019-05-05T12:25:57.006Z,10.73
2019-05-05T12:26:54.240Z,10.86
2019-05-05T12:27:53.246Z,11.00
2019-05-05T12:28:54.558Z,10.88
2019-05-05T12:29:54.579Z,10.88
2019-05-05T12:30:53.151Z,10.88
2019-05-05T12:31:53.220Z,10.76
2019-05-05T12:32:55.239Z,10.71
2019-05-05T12:33:54.841Z,10.74
2019-05-05T12:34:53.764Z,10.82
2019-05-05T12:35:53.990Z,10.99
2019-05-05T12:36:53.935Z,11.00
2019-05-05T12:37:53.831Z,11.18
2019-05-05T12:38:54.629Z,11.57
2019-05-05T12:39:54.579Z,12.19
2019-05-05T12:40:53.530Z,12.38
2019-05-05T12:41:54.313Z,12.19
2019-05-05T12:42:54.317Z,12.02
2019-05-05T12:43:54.963Z,12.04
2019-05-05T12:44:53.776Z,12.13
2019-05-05T12:45:53.864Z,12.50
2019-05-05T12:46:53.247Z,13.39
2019-05-05T12:47:52.557Z,13.91
2019-05-05T12:48:54.235Z,14.04
2019-05-05T12:49:54.424Z,14.21
2019-05-05T12:50:53.557Z,14.61
2019-05-05T12:51:54.052Z,15.25
2019-05-05T12:52:54.761Z,15.36
2019-05-05T12:53:53.958Z,14.91
2019-05-05T12:54:54.481Z,14.51
2019-05-05T12:55:53.838Z,13.59
2019-05-05T12:56:53.882Z,13.12
2019-05-05T12:57:54.046Z,12.45
2019-05-05T12:58:54.348Z,11.98
2019-05-05T12:59:53.637Z,11.83
2019-05-05T13:00:53.994Z,11.94
2019-05-05T13:01:54.450Z,11.91
2019-05-05T13:02:53.777Z,12.02
2019-05-05T13:03:54.104Z,11.90
2019-05-05T13:04:53.493Z,11.85
2019-05-05T13:05:53.574Z,12.05
2019-05-05T13:06:53.939Z,11.99
2019-05-05T13:07:51.902Z,11.75